sensor_id;sensor_type;location;lat;lon;timestamp;pressure;altitude;pressure_sealevel;temperature;humidity
22047;BME280;11187;49.412;20.956;2023-09-19T00:00:46;94740.53;;;16.39;100.00
22047;BME280;11187;49.412;20.956;2023-09-19T00:03:40;94731.00;;;16.39;100.00
22047;BME280;11187;49.412;20.956;2023-09-19T00:06:34;94731.94;;;16.38;100.00
22047;BME280;11187;49.412;20.956;2023-09-19T00:09:28;94727.59;;;16.39;100.00
22047;BME280;11187;49.412;20.956;2023-09-19T00:12:25;94729.34;;;16.38;100.00
22047;BME280;11187;49.412;20.956;2023-09-19T00:15:05;94732.00;;;16.37;100.00
22047;BME280;11187;49.412;20.956;2023-09-19T00:17:46;94720.91;;;16.35;100.00
22047;BME280;11187;49.412;20.956;2023-09-19T00:20:27;94721.88;;;16.32;100.00
22047;BME280;11187;49.412;20.956;2023-09-19T00:23:14;94719.25;;;16.34;100.00
22047;BME280;11187;49.412;20.956;2023-09-19T00:25:58;94722.66;;;16.34;100.00
22047;BME280;11187;49.412;20.956;2023-09-19T00:28:45;94719.19;;;16.35;100.00
22047;BME280;11187;49.412;20.956;2023-09-19T00:31:18;94719.09;;;16.37;100.00
22047;BME280;11187;49.412;20.956;2023-09-19T00:34:05;94712.16;;;16.37;100.00
22047;BME280;11187;49.412;20.956;2023-09-19T00:36:39;94705.28;;;16.38;100.00
22047;BME280;11187;49.412;20.956;2023-09-19T00:39:26;94696.59;;;16.39;100.00
22047;BME280;11187;49.412;20.956;2023-09-19T00:42:18;94690.66;;;16.37;100.00
22047;BME280;11187;49.412;20.956;2023-09-19T00:45:13;94683.75;;;16.37;100.00
22047;BME280;11187;49.412;20.956;2023-09-19T00:48:07;94688.91;;;16.37;100.00
22047;BME280;11187;49.412;20.956;2023-09-19T00:50:42;94687.03;;;16.41;100.00
22047;BME280;11187;49.412;20.956;2023-09-19T00:53:30;94684.38;;;16.42;100.00
22047;BME280;11187;49.412;20.956;2023-09-19T00:56:04;94681.69;;;16.44;100.00
22047;BME280;11187;49.412;20.956;2023-09-19T00:58:51;94680.88;;;16.43;100.00
22047;BME280;11187;49.412;20.956;2023-09-19T01:01:25;94673.13;;;16.43;100.00
22047;BME280;11187;49.412;20.956;2023-09-19T01:04:19;94677.47;;;16.43;100.00
22047;BME280;11187;49.412;20.956;2023-09-19T01:06:53;94677.31;;;16.46;100.00
22047;BME280;11187;49.412;20.956;2023-09-19T01:09:41;94675.47;;;16.48;100.00
22047;BME280;11187;49.412;20.956;2023-09-19T01:12:22;94673.66;;;16.50;100.00
22047;BME280;11187;49.412;20.956;2023-09-19T01:15:32;94666.69;;;16.52;100.00
22047;BME280;11187;49.412;20.956;2023-09-19T01:22:00;94659.69;;;16.54;100.00
22047;BME280;11187;49.412;20.956;2023-09-19T01:25:20;94647.44;;;16.58;100.00
22047;BME280;11187;49.412;20.956;2023-09-19T01:30:57;94641.31;;;16.60;100.00
22047;BME280;11187;49.412;20.956;2023-09-19T01:34:00;94641.97;;;16.64;100.00
22047;BME280;11187;49.412;20.956;2023-09-19T01:36:48;94637.50;;;16.67;100.00
22047;BME280;11187;49.412;20.956;2023-09-19T01:39:21;94623.59;;;16.70;100.00
22047;BME280;11187;49.412;20.956;2023-09-19T01:42:24;94620.84;;;16.73;100.00
22047;BME280;11187;49.412;20.956;2023-09-19T01:49:15;94607.47;;;16.82;100.00
22047;BME280;11187;49.412;20.956;2023-09-19T01:52:04;94597.66;;;16.89;100.00
22047;BME280;11187;49.412;20.956;2023-09-19T01:54:57;94600.00;;;16.94;100.00
22047;BME280;11187;49.412;20.956;2023-09-19T01:57:42;94591.19;;;16.98;100.00
22047;BME280;11187;49.412;20.956;2023-09-19T02:00:36;94586.59;;;17.03;100.00
22047;BME280;11187;49.412;20.956;2023-09-19T02:03:11;94587.03;;;17.11;100.00
22047;BME280;11187;49.412;20.956;2023-09-19T02:05:58;94584.97;;;17.18;100.00
22047;BME280;11187;49.412;20.956;2023-09-19T02:08:31;94586.47;;;17.22;100.00
22047;BME280;11187;49.412;20.956;2023-09-19T02:11:18;94589.66;;;17.27;100.00
22047;BME280;11187;49.412;20.956;2023-09-19T02:13:51;94580.00;;;17.30;100.00
22047;BME280;11187;49.412;20.956;2023-09-19T02:16:39;94587.66;;;17.32;100.00
22047;BME280;11187;49.412;20.956;2023-09-19T02:19:12;94585.88;;;17.32;100.00
22047;BME280;11187;49.412;20.956;2023-09-19T02:22:00;94590.09;;;17.35;100.00
22047;BME280;11187;49.412;20.956;2023-09-19T02:24:43;94582.22;;;17.37;100.00
22047;BME280;11187;49.412;20.956;2023-09-19T02:27:24;94582.16;;;17.38;100.00
22047;BME280;11187;49.412;20.956;2023-09-19T02:30:05;94580.31;;;17.40;100.00
22047;BME280;11187;49.412;20.956;2023-09-19T02:32:45;94570.88;;;17.39;100.00
22047;BME280;11187;49.412;20.956;2023-09-19T02:35:25;94576.81;;;17.41;100.00
22047;BME280;11187;49.412;20.956;2023-09-19T02:38:08;94570.72;;;17.42;100.00
22047;BME280;11187;49.412;20.956;2023-09-19T02:40:54;94568.03;;;17.44;100.00
22047;BME280;11187;49.412;20.956;2023-09-19T02:43:34;94569.81;;;17.43;100.00
22047;BME280;11187;49.412;20.956;2023-09-19T02:46:15;94571.56;;;17.43;100.00
22047;BME280;11187;49.412;20.956;2023-09-19T02:48:55;94578.50;;;17.42;100.00
22047;BME280;11187;49.412;20.956;2023-09-19T02:51:35;94576.72;;;17.43;100.00
22047;BME280;11187;49.412;20.956;2023-09-19T02:54:15;94575.91;;;17.42;100.00
22047;BME280;11187;49.412;20.956;2023-09-19T02:56:59;94575.91;;;17.42;100.00
22047;BME280;11187;49.412;20.956;2023-09-19T02:59:39;94568.97;;;17.43;100.00
22047;BME280;11187;49.412;20.956;2023-09-19T03:02:22;94569.88;;;17.42;100.00
22047;BME280;11187;49.412;20.956;2023-09-19T03:05:12;94570.88;;;17.39;100.00
22047;BME280;11187;49.412;20.956;2023-09-19T03:07:47;94572.72;;;17.37;100.00
22047;BME280;11187;49.412;20.956;2023-09-19T03:10:35;94570.22;;;17.36;100.00
22047;BME280;11187;49.412;20.956;2023-09-19T03:13:17;94572.97;;;17.32;100.00
22047;BME280;11187;49.412;20.956;2023-09-19T03:16:04;94573.97;;;17.30;100.00
22047;BME280;11187;49.412;20.956;2023-09-19T03:18:48;94568.78;;;17.30;100.00
22047;BME280;11187;49.412;20.956;2023-09-19T03:21:28;94563.72;;;17.28;100.00
22047;BME280;11187;49.412;20.956;2023-09-19T03:24:16;94562.78;;;17.29;100.00
22047;BME280;11187;49.412;20.956;2023-09-19T03:27:10;94549.91;;;17.28;100.00
22047;BME280;11187;49.412;20.956;2023-09-19T03:29:43;94544.09;;;17.24;100.00
22047;BME280;11187;49.412;20.956;2023-09-19T03:32:30;94536.41;;;17.23;100.00
22047;BME280;11187;49.412;20.956;2023-09-19T03:35:04;94545.91;;;17.22;100.00
22047;BME280;11187;49.412;20.956;2023-09-19T03:37:54;94540.00;;;17.20;100.00
22047;BME280;11187;49.412;20.956;2023-09-19T03:40:27;94539.91;;;17.22;100.00
22047;BME280;11187;49.412;20.956;2023-09-19T03:43:24;94541.66;;;17.21;100.00
22047;BME280;11187;49.412;20.956;2023-09-19T03:46:01;94543.41;;;17.21;100.00
22047;BME280;11187;49.412;20.956;2023-09-19T03:48:48;94540.81;;;17.21;100.00
22047;BME280;11187;49.412;20.956;2023-09-19T03:51:21;94546.81;;;17.21;100.00
22047;BME280;11187;49.412;20.956;2023-09-19T03:54:08;94539.06;;;17.21;100.00
22047;BME280;11187;49.412;20.956;2023-09-19T03:56:48;94546.81;;;17.21;100.00
22047;BME280;11187;49.412;20.956;2023-09-19T03:59:35;94546.94;;;17.20;100.00
22047;BME280;11187;49.412;20.956;2023-09-19T04:02:15;94549.50;;;17.20;100.00
22047;BME280;11187;49.412;20.956;2023-09-19T04:04:56;94545.34;;;17.17;100.00
22047;BME280;11187;49.412;20.956;2023-09-19T04:07:36;94532.41;;;17.17;100.00
22047;BME280;11187;49.412;20.956;2023-09-19T04:10:17;94524.72;;;17.16;100.00
22047;BME280;11187;49.412;20.956;2023-09-19T04:12:57;94524.53;;;17.19;100.00
22047;BME280;11187;49.412;20.956;2023-09-19T04:15:37;94523.72;;;17.18;100.00
22047;BME280;11187;49.412;20.956;2023-09-19T04:18:17;94515.97;;;17.18;100.00
22047;BME280;11187;49.412;20.956;2023-09-19T04:20:58;94513.44;;;17.17;100.00
22047;BME280;11187;49.412;20.956;2023-09-19T04:23:46;94510.03;;;17.16;100.00
22047;BME280;11187;49.412;20.956;2023-09-19T04:26:40;94512.53;;;17.18;100.00
22047;BME280;11187;49.412;20.956;2023-09-19T04:29:13;94515.06;;;17.19;100.00
22047;BME280;11187;49.412;20.956;2023-09-19T04:32:07;94511.59;;;17.19;100.00
22047;BME280;11187;49.412;20.956;2023-09-19T04:35:02;94516.78;;;17.19;100.00
22047;BME280;11187;49.412;20.956;2023-09-19T04:37:39;94521.06;;;17.20;100.00
22047;BME280;11187;49.412;20.956;2023-09-19T04:40:34;94518.53;;;17.18;100.00
22047;BME280;11187;49.412;20.956;2023-09-19T04:43:29;94514.31;;;17.17;100.00
22047;BME280;11187;49.412;20.956;2023-09-19T04:46:10;94513.44;;;17.17;100.00
22047;BME280;11187;49.412;20.956;2023-09-19T04:48:57;94504.09;;;17.14;100.00
22047;BME280;11187;49.412;20.956;2023-09-19T04:51:30;94510.97;;;17.15;100.00
22047;BME280;11187;49.412;20.956;2023-09-19T04:54:17;94504.09;;;17.14;100.00
22047;BME280;11187;49.412;20.956;2023-09-19T04:56:51;94505.84;;;17.14;100.00
22047;BME280;11187;49.412;20.956;2023-09-19T04:59:41;94503.34;;;17.12;100.00
22047;BME280;11187;49.412;20.956;2023-09-19T05:02:17;94507.69;;;17.11;100.00
22047;BME280;11187;49.412;20.956;2023-09-19T05:05:04;94513.78;;;17.10;100.00
22047;BME280;11187;49.412;20.956;2023-09-19T05:07:40;94512.03;;;17.11;100.00
22047;BME280;11187;49.412;20.956;2023-09-19T05:10:27;94506.09;;;17.09;100.00
22047;BME280;11187;49.412;20.956;2023-09-19T05:13:00;94506.94;;;17.09;100.00
22047;BME280;11187;49.412;20.956;2023-09-19T05:15:47;94508.75;;;17.07;100.00
22047;BME280;11187;49.412;20.956;2023-09-19T05:18:20;94505.41;;;17.05;100.00
22047;BME280;11187;49.412;20.956;2023-09-19T05:21:07;94502.94;;;17.04;100.00
22047;BME280;11187;49.412;20.956;2023-09-19T05:23:54;94496.06;;;17.03;100.00
22047;BME280;11187;49.412;20.956;2023-09-19T05:26:50;94501.34;;;17.01;100.00
22047;BME280;11187;49.412;20.956;2023-09-19T05:29:44;94500.59;;;16.99;100.00
22047;BME280;11187;49.412;20.956;2023-09-19T05:32:17;94499.78;;;16.99;100.00
22047;BME280;11187;49.412;20.956;2023-09-19T05:35:11;94495.66;;;16.95;100.00
22047;BME280;11187;49.412;20.956;2023-09-19T05:37:45;94503.44;;;16.95;100.00
22047;BME280;11187;49.412;20.956;2023-09-19T05:40:40;94492.41;;;16.91;100.00
22047;BME280;11187;49.412;20.956;2023-09-19T05:43:33;94493.41;;;16.88;100.00
22047;BME280;11187;49.412;20.956;2023-09-19T05:46:27;94498.66;;;16.87;100.00
22047;BME280;11187;49.412;20.956;2023-09-19T05:49:21;94498.75;;;16.85;100.00
22047;BME280;11187;49.412;20.956;2023-09-19T05:51:54;94501.41;;;16.84;100.00
22047;BME280;11187;49.412;20.956;2023-09-19T05:54:42;94504.16;;;16.81;100.00
22047;BME280;11187;49.412;20.956;2023-09-19T05:57:15;94505.19;;;16.77;100.00
22047;BME280;11187;49.412;20.956;2023-09-19T06:00:09;94510.38;;;16.77;100.00
22047;BME280;11187;49.412;20.956;2023-09-19T06:03:05;94506.97;;;16.76;100.00
22047;BME280;11187;49.412;20.956;2023-09-19T06:05:59;94507.84;;;16.75;100.00
22047;BME280;11187;49.412;20.956;2023-09-19T06:08:32;94500.16;;;16.74;100.00
22047;BME280;11187;49.412;20.956;2023-09-19T06:11:26;94507.09;;;16.73;100.00
22047;BME280;11187;49.412;20.956;2023-09-19T06:14:21;94508.03;;;16.72;100.00
22047;BME280;11187;49.412;20.956;2023-09-19T06:17:15;94508.09;;;16.70;100.00
22047;BME280;11187;49.412;20.956;2023-09-19T06:19:49;94509.03;;;16.69;100.00
22047;BME280;11187;49.412;20.956;2023-09-19T06:22:39;94512.44;;;16.70;100.00
22047;BME280;11187;49.412;20.956;2023-09-19T06:25:33;94509.91;;;16.68;100.00
22047;BME280;11187;49.412;20.956;2023-09-19T06:28:06;94511.91;;;16.63;100.00
22047;BME280;11187;49.412;20.956;2023-09-19T06:30:54;94514.44;;;16.65;100.00
22047;BME280;11187;49.412;20.956;2023-09-19T06:33:27;94519.44;;;16.68;100.00
22047;BME280;11187;49.412;20.956;2023-09-19T06:36:10;94510.84;;;16.67;100.00
22047;BME280;11187;49.412;20.956;2023-09-19T06:38:51;94515.09;;;16.68;100.00
22047;BME280;11187;49.412;20.956;2023-09-19T06:41:32;94513.25;;;16.70;100.00
22047;BME280;11187;49.412;20.956;2023-09-19T06:44:12;94518.44;;;16.70;100.00
22047;BME280;11187;49.412;20.956;2023-09-19T06:46:45;94517.59;;;16.70;100.00
22047;BME280;11187;49.412;20.956;2023-09-19T06:49:35;94514.94;;;16.72;100.00
22047;BME280;11187;49.412;20.956;2023-09-19T06:52:09;94522.59;;;16.73;100.00
22047;BME280;11187;49.412;20.956;2023-09-19T06:55:02;94522.53;;;16.75;100.00
22047;BME280;11187;49.412;20.956;2023-09-19T06:58:03;94520.84;;;16.74;100.00
22047;BME280;11187;49.412;20.956;2023-09-19T07:00:39;94532.03;;;16.74;100.00
22047;BME280;11187;49.412;20.956;2023-09-19T07:03:35;94534.63;;;16.74;100.00
22047;BME280;11187;49.412;20.956;2023-09-19T07:06:09;94527.69;;;16.75;100.00
22047;BME280;11187;49.412;20.956;2023-09-19T07:09:03;94538.03;;;16.75;100.00
22047;BME280;11187;49.412;20.956;2023-09-19T07:11:36;94538.03;;;16.75;100.00
22047;BME280;11187;49.412;20.956;2023-09-19T07:14:33;94541.53;;;16.74;100.00
22047;BME280;11187;49.412;20.956;2023-09-19T07:17:06;94549.22;;;16.75;100.00
22047;BME280;11187;49.412;20.956;2023-09-19T07:20:05;94544.03;;;16.75;100.00
22047;BME280;11187;49.412;20.956;2023-09-19T07:22:40;94546.69;;;16.74;100.00
22047;BME280;11187;49.412;20.956;2023-09-19T07:25:35;94546.69;;;16.74;100.00
22047;BME280;11187;49.412;20.956;2023-09-19T07:28:09;94550.03;;;16.76;100.00
22047;BME280;11187;49.412;20.956;2023-09-19T07:31:03;94546.81;;;16.72;100.00
22047;BME280;11187;49.412;20.956;2023-09-19T07:33:57;94549.38;;;16.72;100.00
22047;BME280;11187;49.412;20.956;2023-09-19T07:36:53;94547.63;;;16.73;100.00
22047;BME280;11187;49.412;20.956;2023-09-19T07:39:27;94555.31;;;16.74;100.00
22047;BME280;11187;49.412;20.956;2023-09-19T07:42:20;94554.38;;;16.75;100.00
22047;BME280;11187;49.412;20.956;2023-09-19T07:45:14;94550.03;;;16.76;100.00
22047;BME280;11187;49.412;20.956;2023-09-19T07:47:50;94561.25;;;16.76;100.00
22047;BME280;11187;49.412;20.956;2023-09-19T07:50:44;94555.22;;;16.76;100.00
22047;BME280;11187;49.412;20.956;2023-09-19T07:53:17;94555.22;;;16.76;100.00
22047;BME280;11187;49.412;20.956;2023-09-19T07:56:07;94554.44;;;16.74;100.00
22047;BME280;11187;49.412;20.956;2023-09-19T07:58:41;94555.38;;;16.73;100.00
22047;BME280;11187;49.412;20.956;2023-09-19T08:01:34;94556.38;;;16.70;100.00
22047;BME280;11187;49.412;20.956;2023-09-19T08:04:09;94553.03;;;16.68;100.00
22047;BME280;11187;49.412;20.956;2023-09-19T08:06:55;94552.34;;;16.64;100.00
22047;BME280;11187;49.412;20.956;2023-09-19T08:09:29;94543.94;;;16.61;100.00
22047;BME280;11187;49.412;20.956;2023-09-19T08:12:16;94550.91;;;16.59;100.00
22047;BME280;11187;49.412;20.956;2023-09-19T08:14:50;94549.34;;;16.56;100.00
22047;BME280;11187;49.412;20.956;2023-09-19T08:17:36;94548.56;;;16.54;100.00
22047;BME280;11187;49.412;20.956;2023-09-19T08:20:10;94554.63;;;16.53;100.00
22047;BME280;11187;49.412;20.956;2023-09-19T08:23:08;94558.22;;;16.50;100.00
22047;BME280;11187;49.412;20.956;2023-09-19T08:26:06;94549.78;;;16.47;100.00
22047;BME280;11187;49.412;20.956;2023-09-19T08:28:41;94551.56;;;16.46;100.00
22047;BME280;11187;49.412;20.956;2023-09-19T08:31:34;94555.03;;;16.45;100.00
22047;BME280;11187;49.412;20.956;2023-09-19T08:34:28;94563.72;;;16.44;100.00
22047;BME280;11187;49.412;20.956;2023-09-19T08:37:07;94556.03;;;16.43;100.00
22047;BME280;11187;49.412;20.956;2023-09-19T08:39:53;94554.38;;;16.42;100.00
22047;BME280;11187;49.412;20.956;2023-09-19T08:42:27;94557.09;;;16.39;100.00
22047;BME280;11187;49.412;20.956;2023-09-19T08:45:17;94557.09;;;16.39;100.00
22047;BME280;11187;49.412;20.956;2023-09-19T08:48:04;94556.31;;;16.37;100.00
22047;BME280;11187;49.412;20.956;2023-09-19T08:51:05;94570.16;;;16.36;100.00
22047;BME280;11187;49.412;20.956;2023-09-19T08:54:07;94567.66;;;16.34;100.00
22047;BME280;11187;49.412;20.956;2023-09-19T08:57:06;94577.97;;;16.34;100.00
22047;BME280;11187;49.412;20.956;2023-09-19T08:59:41;94566.88;;;16.32;100.00
22047;BME280;11187;49.412;20.956;2023-09-19T09:02:30;94572.88;;;16.33;100.00
22047;BME280;11187;49.412;20.956;2023-09-19T09:05:05;94574.63;;;16.32;100.00
22047;BME280;11187;49.412;20.956;2023-09-19T09:07:53;94578.91;;;16.33;100.00
22047;BME280;11187;49.412;20.956;2023-09-19T09:10:29;94572.88;;;16.33;100.00
22047;BME280;11187;49.412;20.956;2023-09-19T09:13:24;94582.31;;;16.34;100.00
22047;BME280;11187;49.412;20.956;2023-09-19T09:16:18;94578.91;;;16.33;100.00
22047;BME280;11187;49.412;20.956;2023-09-19T09:18:52;94580.63;;;16.33;100.00
22047;BME280;11187;49.412;20.956;2023-09-19T09:21:39;94586.66;;;16.33;100.00
22047;BME280;11187;49.412;20.956;2023-09-19T09:24:27;94583.22;;;16.33;100.00
22047;BME280;11187;49.412;20.956;2023-09-19T09:27:25;94579.81;;;16.32;100.00
22047;BME280;11187;49.412;20.956;2023-09-19T09:30:37;94582.38;;;16.32;100.00
22047;BME280;11187;49.412;20.956;2023-09-19T09:33:12;94598.72;;;16.33;100.00
22047;BME280;11187;49.412;20.956;2023-09-19T09:36:00;94602.16;;;16.33;100.00
22047;BME280;11187;49.412;20.956;2023-09-19T09:38:46;94598.59;;;16.36;100.00
22047;BME280;11187;49.412;20.956;2023-09-19T09:41:42;94598.50;;;16.37;100.00
22047;BME280;11187;49.412;20.956;2023-09-19T09:44:18;94602.75;;;16.38;100.00
22047;BME280;11187;49.412;20.956;2023-09-19T09:47:04;94604.34;;;16.41;100.00
22047;BME280;11187;49.412;20.956;2023-09-19T09:49:57;94609.47;;;16.42;100.00
22047;BME280;11187;49.412;20.956;2023-09-19T09:52:53;94619.63;;;16.45;100.00
22047;BME280;11187;49.412;20.956;2023-09-19T09:56:09;94628.31;;;16.44;100.00
22047;BME280;11187;49.412;20.956;2023-09-19T09:58:49;94624.78;;;16.45;100.00
22047;BME280;11187;49.412;20.956;2023-09-19T10:01:48;94628.22;;;16.46;100.00
22047;BME280;11187;49.412;20.956;2023-09-19T10:04:28;94629.06;;;16.46;100.00
22047;BME280;11187;49.412;20.956;2023-09-19T10:07:27;94638.47;;;16.47;100.00
22047;BME280;11187;49.412;20.956;2023-09-19T10:10:02;94634.06;;;16.49;100.00
22047;BME280;11187;49.412;20.956;2023-09-19T10:12:58;94643.47;;;16.50;100.00
22047;BME280;11187;49.412;20.956;2023-09-19T10:15:36;94635.72;;;16.50;100.00
22047;BME280;11187;49.412;20.956;2023-09-19T10:18:38;94630.50;;;16.52;100.00
22047;BME280;11187;49.412;20.956;2023-09-19T10:21:36;94625.34;;;16.52;100.00
22047;BME280;11187;49.412;20.956;2023-09-19T10:24:09;94630.44;;;16.54;100.00
22047;BME280;11187;49.412;20.956;2023-09-19T10:26:59;94626.84;;;16.56;100.00
22047;BME280;11187;49.412;20.956;2023-09-19T10:29:34;94631.03;;;16.59;100.00
22047;BME280;11187;49.412;20.956;2023-09-19T10:32:23;94633.56;;;16.60;100.00
22047;BME280;11187;49.412;20.956;2023-09-19T10:34:57;94638.72;;;16.60;100.00
22047;BME280;11187;49.412;20.956;2023-09-19T10:37:54;94635.16;;;16.63;100.00
22047;BME280;11187;49.412;20.956;2023-09-19T10:40:53;94639.31;;;16.65;100.00
22047;BME280;11187;49.412;20.956;2023-09-19T10:43:33;94643.56;;;16.66;100.00
22047;BME280;11187;49.412;20.956;2023-09-19T10:46:31;94639.16;;;16.68;100.00
22047;BME280;11187;49.412;20.956;2023-09-19T10:49:05;94640.84;;;16.69;100.00
22047;BME280;11187;49.412;20.956;2023-09-19T10:52:02;94645.84;;;16.73;100.00
22047;BME280;11187;49.412;20.956;2023-09-19T10:54:59;94649.13;;;16.76;100.00
22047;BME280;11187;49.412;20.956;2023-09-19T10:57:35;94642.97;;;16.79;100.00
22047;BME280;11187;49.412;20.956;2023-09-19T11:00:21;94649.75;;;16.81;100.00
22047;BME280;11187;49.412;20.956;2023-09-19T11:06:09;94649.53;;;16.86;100.00
22047;BME280;11187;49.412;20.956;2023-09-19T11:09:03;94650.34;;;16.86;100.00
22047;BME280;11187;49.412;20.956;2023-09-19T11:11:56;94660.63;;;16.88;100.00
22047;BME280;11187;49.412;20.956;2023-09-19T11:14:41;94653.72;;;16.88;100.00
22047;BME280;11187;49.412;20.956;2023-09-19T11:17:55;94661.41;;;16.90;100.00
22047;BME280;11187;49.412;20.956;2023-09-19T11:20:36;94649.28;;;16.90;100.00
22047;BME280;11187;49.412;20.956;2023-09-19T11:23:23;94656.13;;;16.91;100.00
22047;BME280;11187;49.412;20.956;2023-09-19T11:29:30;94656.97;;;16.92;100.00
22047;BME280;11187;49.412;20.956;2023-09-19T11:32:04;94655.16;;;16.94;100.00
22047;BME280;11187;49.412;20.956;2023-09-19T11:34:51;94660.34;;;16.94;100.00
22047;BME280;11187;49.412;20.956;2023-09-19T11:40:16;94662.75;;;16.97;100.00
22047;BME280;11187;49.412;20.956;2023-09-19T11:43:29;94668.75;;;16.98;100.00
22047;BME280;11187;49.412;20.956;2023-09-19T11:46:27;94667.94;;;16.97;100.00
22047;BME280;11187;49.412;20.956;2023-09-19T11:49:30;94672.94;;;17.00;100.00
22047;BME280;11187;49.412;20.956;2023-09-19T11:52:05;94663.41;;;17.01;100.00
22047;BME280;11187;49.412;20.956;2023-09-19T11:55:01;94668.53;;;17.02;100.00
22047;BME280;11187;49.412;20.956;2023-09-19T11:57:57;94667.63;;;17.03;100.00
22047;BME280;11187;49.412;20.956;2023-09-19T12:00:56;94671.94;;;17.03;100.00
22047;BME280;11187;49.412;20.956;2023-09-19T12:03:32;94666.75;;;17.03;100.00
22047;BME280;11187;49.412;20.956;2023-09-19T12:06:29;94671.94;;;17.03;100.00
22047;BME280;11187;49.412;20.956;2023-09-19T12:09:04;94669.34;;;17.03;100.00
22047;BME280;11187;49.412;20.956;2023-09-19T12:11:51;94671.03;;;17.04;100.00
22047;BME280;11187;49.412;20.956;2023-09-19T12:14:26;94669.34;;;17.03;100.00
22047;BME280;11187;49.412;20.956;2023-09-19T12:17:14;94682.38;;;17.01;100.00
22047;BME280;11187;49.412;20.956;2023-09-19T12:19:52;94671.09;;;17.02;100.00
22047;BME280;11187;49.412;20.956;2023-09-19T12:22:45;94676.28;;;17.02;100.00
22047;BME280;11187;49.412;20.956;2023-09-19T12:25:20;94683.16;;;17.03;100.00
22047;BME280;11187;49.412;20.956;2023-09-19T12:28:15;94678.78;;;17.04;100.00
22047;BME280;11187;49.412;20.956;2023-09-19T12:31:11;94668.53;;;17.02;100.00
22047;BME280;11187;49.412;20.956;2023-09-19T12:33:46;94669.34;;;17.03;100.00
22047;BME280;11187;49.412;20.956;2023-09-19T12:36:39;94673.69;;;17.02;100.00
22047;BME280;11187;49.412;20.956;2023-09-19T12:39:23;94677.09;;;17.03;100.00
22047;BME280;11187;49.412;20.956;2023-09-19T12:42:24;94680.56;;;17.03;100.00
22047;BME280;11187;49.412;20.956;2023-09-19T12:45:07;94679.69;;;17.03;100.00
22047;BME280;11187;49.412;20.956;2023-09-19T12:51:09;94685.78;;;17.02;100.00
22047;BME280;11187;49.412;20.956;2023-09-19T12:54:09;94687.44;;;17.03;100.00
22047;BME280;11187;49.412;20.956;2023-09-19T12:56:54;94685.72;;;17.03;100.00
22047;BME280;11187;49.412;20.956;2023-09-19T12:59:41;94695.16;;;17.04;100.00
22047;BME280;11187;49.412;20.956;2023-09-19T13:02:21;94702.44;;;16.96;100.00
22047;BME280;11187;49.412;20.956;2023-09-19T13:05:01;94700.94;;;16.92;100.00
22047;BME280;11187;49.412;20.956;2023-09-19T13:07:46;94711.41;;;16.89;100.00
22047;BME280;11187;49.412;20.956;2023-09-19T13:10:26;94721.69;;;16.90;100.00
22047;BME280;11187;49.412;20.956;2023-09-19T13:13:25;94721.94;;;16.86;100.00
22047;BME280;11187;49.412;20.956;2023-09-19T13:16:04;94723.75;;;16.84;100.00
22047;BME280;11187;49.412;20.956;2023-09-19T13:18:53;94721.31;;;16.81;100.00
22047;BME280;11187;49.412;20.956;2023-09-19T13:21:40;94727.38;;;16.80;100.00
22047;BME280;11187;49.412;20.956;2023-09-19T13:24:37;94724.81;;;16.80;100.00
22047;BME280;11187;49.412;20.956;2023-09-19T13:27:31;94727.50;;;16.77;100.00
22047;BME280;11187;49.412;20.956;2023-09-19T13:30:05;94723.34;;;16.74;100.00
22047;BME280;11187;49.412;20.956;2023-09-19T13:33:08;94716.63;;;16.70;100.00
22047;BME280;11187;49.412;20.956;2023-09-19T13:35:43;94728.03;;;16.66;100.00
22047;BME280;11187;49.412;20.956;2023-09-19T13:38:29;94716.16;;;16.62;100.00
22047;BME280;11187;49.412;20.956;2023-09-19T13:41:03;94712.75;;;16.61;100.00
22047;BME280;11187;49.412;20.956;2023-09-19T13:43:56;94720.34;;;16.64;100.00
22047;BME280;11187;49.412;20.956;2023-09-19T13:46:51;94721.31;;;16.62;100.00
22047;BME280;11187;49.412;20.956;2023-09-19T13:49:45;94717.84;;;16.63;100.00
22047;BME280;11187;49.412;20.956;2023-09-19T13:52:39;94717.09;;;16.61;100.00
22047;BME280;11187;49.412;20.956;2023-09-19T13:55:34;94715.41;;;16.60;100.00
22047;BME280;11187;49.412;20.956;2023-09-19T13:58:28;94724.22;;;16.56;100.00
22047;BME280;11187;49.412;20.956;2023-09-19T14:01:22;94728.53;;;16.55;100.00
22047;BME280;11187;49.412;20.956;2023-09-19T14:03:56;94732.81;;;16.56;100.00
22047;BME280;11187;49.412;20.956;2023-09-19T14:06:43;94731.97;;;16.56;100.00
22047;BME280;11187;49.412;20.956;2023-09-19T14:09:17;94726.81;;;16.56;100.00
22047;BME280;11187;49.412;20.956;2023-09-19T14:12:05;94730.22;;;16.56;100.00
22047;BME280;11187;49.412;20.956;2023-09-19T14:14:38;94733.72;;;16.55;100.00
22047;BME280;11187;49.412;20.956;2023-09-19T14:17:25;94738.88;;;16.55;100.00
22047;BME280;11187;49.412;20.956;2023-09-19T14:20:00;94734.63;;;16.54;100.00
22047;BME280;11187;49.412;20.956;2023-09-19T14:22:53;94743.16;;;16.56;100.00
22047;BME280;11187;49.412;20.956;2023-09-19T14:25:50;94739.75;;;16.56;100.00
22047;BME280;11187;49.412;20.956;2023-09-19T14:28:43;94748.22;;;16.58;100.00
22047;BME280;11187;49.412;20.956;2023-09-19T14:31:18;94743.06;;;16.58;100.00
22047;BME280;11187;49.412;20.956;2023-09-19T14:34:06;94741.34;;;16.58;100.00
22047;BME280;11187;49.412;20.956;2023-09-19T14:36:39;94745.63;;;16.58;100.00
22047;BME280;11187;49.412;20.956;2023-09-19T14:39:32;94748.31;;;16.56;100.00